Time,TemperatureF,DewpointF,PressureIn,WindDirection,WindDirectionDegrees,WindSpeedMPH,WindSpeedGustMPH,Humidity,HourlyPrecipIn,Conditions,Clouds,dailyrainin,SoftwareType,DateUTC
2013-01-22 06:27:00,56.3,48.8,30.11,NE,41,2.4,4.6,76,0.00,FEW,,0.00,WeatherDisplay:10.37,2013-01-22 11:27:00,
2013-01-22 06:32:00,55.7,48.2,30.11,NE,41,0.0,0.0,76,0.00,FEW,,0.00,WeatherDisplay:10.37,2013-01-22 11:32:00,
2013-01-22 06:37:00,55.7,48.2,30.11,NE,41,0.0,1.1,76,0.00,FEW,,0.00,WeatherDisplay:10.37,2013-01-22 11:37:00,
2013-01-22 06:42:00,55.6,48.2,30.12,NE,41,0.0,0.0,76,0.00,FEW,,0.00,WeatherDisplay:10.37,2013-01-22 11:42:00,
2013-01-22 06:47:00,55.5,48.4,30.11,NE,40,0.5,1.1,77,0.00,FEW,,0.00,WeatherDisplay:10.37,2013-01-22 11:47:00,
2013-01-22 06:52:00,55.6,48.2,30.12,NNE,25,0.5,1.1,76,0.00,FEW,,0.00,WeatherDisplay:10.37,2013-01-22 11:52:00,
2013-01-22 06:57:00,55.8,48.3,30.12,NE,44,0.1,1.1,76,0.00,FEW,,0.00,WeatherDisplay:10.37,2013-01-22 11:57:00,
2013-01-22 07:02:00,55.7,48.2,30.12,NE,44,0.0,0.0,76,0.00,FEW,,0.00,WeatherDisplay:10.37,2013-01-22 12:02:00,
2013-01-22 07:07:00,55.8,48.3,30.12,NNE,25,0.2,1.1,76,0.00,FEW,,0.00,WeatherDisplay:10.37,2013-01-22 12:07:00,
2013-01-22 07:12:00,56.0,48.5,30.12,NE,37,0.1,1.1,76,0.00,FEW,,0.00,WeatherDisplay:10.37,2013-01-22 12:12:00,
2013-01-22 07:17:00,55.9,48.1,30.12,NE,37,0.0,1.1,75,0.00,FEW,,0.00,WeatherDisplay:10.37,2013-01-22 12:17:00,
2013-01-22 07:22:00,55.8,48.0,30.13,North,9,0.6,1.1,75,0.00,FEW,,0.00,WeatherDisplay:10.37,2013-01-22 12:22:00,
2013-01-22 07:27:00,55.8,48.3,30.13,North,351,0.6,1.1,76,0.00,FEW,,0.00,WeatherDisplay:10.37,2013-01-22 12:27:00,
2013-01-22 07:32:00,55.9,48.1,30.13,NNE,30,0.7,1.1,75,0.00,FEW,,0.00,WeatherDisplay:10.37,2013-01-22 12:32:00,
2013-01-22 07:37:00,56.0,48.2,30.14,NNE,32,0.1,1.1,75,0.00,FEW,,0.00,WeatherDisplay:10.37,2013-01-22 12:37:00,
2013-01-22 07:42:00,56.0,48.2,30.14,NNE,33,0.5,1.0,75,0.00,FEW,,0.00,WeatherDisplay:10.37,2013-01-22 12:42:00,
2013-01-22 07:48:00,56.2,48.0,30.14,North,354,1.3,3.5,74,0.00,FEW,,0.00,WeatherDisplay:10.37,2013-01-22 12:48:00,
2013-01-22 07:53:00,56.3,48.1,30.14,NNE,26,1.1,2.3,74,0.00,FEW,,0.00,WeatherDisplay:10.37,2013-01-22 12:53:00,
2013-01-22 07:58:00,56.4,48.2,30.15,NNE,24,1.1,3.5,74,0.00,FEW,,0.00,WeatherDisplay:10.37,2013-01-22 12:58:00,
2013-01-22 08:03:00,56.7,48.1,30.15,NE,53,1.5,3.5,73,0.00,FEW,,0.00,WeatherDisplay:10.37,2013-01-22 13:03:00,
2013-01-22 08:08:00,56.8,48.2,30.15,NNE,31,2.2,3.5,73,0.00,FEW,,0.00,WeatherDisplay:10.37,2013-01-22 13:08:00,
2013-01-22 08:13:00,57.2,48.6,30.14,NNE,21,3.0,4.6,73,0.00,FEW,,0.00,WeatherDisplay:10.37,2013-01-22 13:13:00,
2013-01-22 08:18:00,57.6,48.6,30.15,North,359,2.2,3.5,72,0.00,FEW,,0.00,WeatherDisplay:10.37,2013-01-22 13:18:00,
2013-01-22 08:23:00,57.9,48.9,30.15,NNW,338,2.5,3.5,72,0.00,FEW,,0.00,WeatherDisplay:10.37,2013-01-22 13:23:00,
2013-01-22 08:28:00,58.2,49.2,30.16,NNE,14,0.1,2.3,72,0.00,FEW,,0.00,WeatherDisplay:10.37,2013-01-22 13:28:00,
2013-01-22 08:33:00,58.3,48.9,30.16,NNE,22,1.1,2.3,71,0.00,FEW,,0.00,WeatherDisplay:10.37,2013-01-22 13:33:00,
2013-01-22 08:38:00,58.4,49.0,30.16,NNE,31,2.1,4.6,71,0.00,FEW,,0.00,WeatherDisplay:10.37,2013-01-22 13:38:00,
2013-01-22 08:43:00,58.6,49.2,30.17,North,9,2.3,4.6,71,0.00,FEW,,0.00,WeatherDisplay:10.37,2013-01-22 13:43:00,
2013-01-22 08:48:00,58.8,49.4,30.17,NNE,29,2.7,3.5,71,0.00,FEW,,0.00,WeatherDisplay:10.37,2013-01-22 13:48:00,
2013-01-22 08:53:00,59.0,49.6,30.17,NNE,25,2.4,3.5,71,0.00,FEW,,0.00,WeatherDisplay:10.37,2013-01-22 13:53:00,
2013-01-22 08:58:00,59.3,49.9,30.17,North,350,3.1,4.6,71,0.00,FEW,,0.00,WeatherDisplay:10.37,2013-01-22 13:58:00,
2013-01-22 09:03:00,59.6,49.8,30.18,NNE,19,2.7,3.5,70,0.00,FEW,,0.00,WeatherDisplay:10.37,2013-01-22 14:03:00,
2013-01-22 09:08:00,59.8,49.6,30.18,North,353,3.2,6.9,69,0.00,FEW,,0.00,WeatherDisplay:10.37,2013-01-22 14:08:00,
2013-01-22 09:13:00,59.9,49.7,30.18,NE,37,3.2,6.0,69,0.00,FEW,,0.00,WeatherDisplay:10.37,2013-01-22 14:13:00,
2013-01-22 09:18:00,60.0,49.0,30.18,NE,37,5.8,8.1,67,0.00,FEW,,0.00,WeatherDisplay:10.37,2013-01-22 14:18:00,
2013-01-22 09:23:00,59.9,48.5,30.19,ENE,60,4.5,8.1,66,0.00,FEW,,0.00,WeatherDisplay:10.37,2013-01-22 14:23:00,
2013-01-22 09:28:00,60.0,48.6,30.19,NE,34,6.2,9.2,66,0.00,FEW,,0.00,WeatherDisplay:10.37,2013-01-22 14:28:00,
2013-01-22 09:33:00,60.4,49.0,30.19,NNE,33,3.1,11.5,66,0.00,FEW,,0.00,WeatherDisplay:10.37,2013-01-22 14:33:00,
2013-01-22 09:38:00,60.8,48.5,30.18,NW,309,6.1,11.5,64,0.00,FEW,,0.00,WeatherDisplay:10.37,2013-01-22 14:38:00,
2013-01-22 09:43:00,60.7,48.4,30.19,NE,41,8.4,13.8,64,0.00,FEW,,0.00,WeatherDisplay:10.37,2013-01-22 14:43:00,
2013-01-22 09:48:00,60.6,47.5,30.19,NNE,30,7.7,12.7,62,0.00,FEW,,0.00,WeatherDisplay:10.37,2013-01-22 14:48:00,
2013-01-22 09:53:00,60.4,47.3,30.20,NNW,339,8.2,12.7,62,0.00,FEW,,0.00,WeatherDisplay:10.37,2013-01-22 14:53:00,
2013-01-22 09:58:00,60.5,47.0,30.20,North,358,8.2,12.7,61,0.00,FEW,,0.00,WeatherDisplay:10.37,2013-01-22 14:58:00,
2013-01-22 10:03:00,60.8,46.8,30.20,NNE,13,6.3,13.8,60,0.00,FEW,,0.00,WeatherDisplay:10.37,2013-01-22 15:03:00,
2013-01-22 10:08:00,61.0,47.0,30.20,NNE,27,9.5,11.5,60,0.00,FEW,,0.00,WeatherDisplay:10.37,2013-01-22 15:08:00,
2013-01-22 10:13:00,61.1,46.2,30.21,North,5,8.4,11.5,58,0.00,FEW,,0.00,WeatherDisplay:10.37,2013-01-22 15:13:00,
2013-01-22 10:19:00,61.1,46.7,30.21,North,356,11.5,13.8,59,0.00,FEW,,0.00,WeatherDisplay:10.37,2013-01-22 15:19:00,
2013-01-22 10:24:00,61.4,46.9,30.21,NNE,30,4.8,11.5,59,0.00,FEW,,0.00,WeatherDisplay:10.37,2013-01-22 15:24:00,
2013-01-22 10:29:00,62.0,46.6,30.21,NNW,335,7.1,16.1,57,0.00,FEW,,0.00,WeatherDisplay:10.37,2013-01-22 15:29:00,
2013-01-22 10:34:00,62.0,45.6,30.22,NNE,24,6.5,12.0,55,0.00,FEW,,0.00,WeatherDisplay:10.37,2013-01-22 15:34:00,
2013-01-22 10:39:00,61.9,45.5,30.21,NNE,16,4.7,11.5,55,0.00,FEW,,0.00,WeatherDisplay:10.37,2013-01-22 15:39:00,
2013-01-22 10:44:00,62.4,46.0,30.21,NNE,26,3.6,6.9,55,0.00,FEW,,0.00,WeatherDisplay:10.37,2013-01-22 15:44:00,
2013-01-22 10:49:00,62.5,44.1,30.21,NNE,27,7.8,13.8,51,0.00,FEW,,0.00,WeatherDisplay:10.37,2013-01-22 15:49:00,
2013-01-22 10:54:00,62.4,44.0,30.21,NNE,16,6.7,7.0,51,0.00,FEW,,0.00,WeatherDisplay:10.37,2013-01-22 15:54:00,
2013-01-22 10:59:00,62.7,42.7,30.21,NE,37,11.2,18.4,48,0.00,FEW,,0.00,WeatherDisplay:10.37,2013-01-22 15:59:00,
2013-01-22 11:04:00,62.7,43.3,30.21,North,359,6.0,12.7,49,0.00,FEW,,0.00,WeatherDisplay:10.37,2013-01-22 16:04:00,
2013-01-22 11:09:00,62.9,42.4,30.22,North,355,9.0,13.8,47,0.00,FEW,,0.00,WeatherDisplay:10.37,2013-01-22 16:09:00,
2013-01-22 11:14:00,63.1,43.1,30.22,NNE,33,6.2,15.0,48,0.00,FEW,,0.00,WeatherDisplay:10.37,2013-01-22 16:14:00,
2013-01-22 11:19:00,63.5,44.0,30.21,NNE,30,6.1,9.2,49,0.00,FEW,,0.00,WeatherDisplay:10.37,2013-01-22 16:19:00,
2013-01-22 11:24:00,63.6,43.5,30.21,NNE,30,4.8,13.8,48,0.00,FEW,,0.00,WeatherDisplay:10.37,2013-01-22 16:24:00,
2013-01-22 11:29:00,63.6,43.5,30.21,NNW,333,5.9,5.9,48,0.00,FEW,,0.00,WeatherDisplay:10.37,2013-01-22 16:29:00,
2013-01-22 11:34:00,63.3,43.3,30.21,NNE,24,8.8,12.7,48,0.00,FEW,,0.00,WeatherDisplay:10.37,2013-01-22 16:34:00,
2013-01-22 11:39:00,63.3,43.3,30.20,NNE,32,6.9,13.8,48,0.00,FEW,,0.00,WeatherDisplay:10.37,2013-01-22 16:39:00,
2013-01-22 18:34:00,60.9,33.7,30.21,NNE,33,4.0,11.5,36,0.00,FEW,,0.00,WeatherDisplay:10.37,2013-01-22 23:34:00,
2013-01-22 18:35:00,60.9,33.7,30.21,NE,41,3.9,11.5,36,0.00,FEW,,0.00,WeatherDisplay:10.37,2013-01-22 23:35:00,
2013-01-22 18:40:00,60.7,33.6,30.22,NE,34,2.2,10.4,36,0.00,FEW,,0.00,WeatherDisplay:10.37,2013-01-22 23:40:00,
2013-01-22 18:45:00,60.6,33.5,30.22,NNE,14,2.4,6.9,36,0.00,FEW,,0.00,WeatherDisplay:10.37,2013-01-22 23:45:00,
2013-01-22 18:50:00,60.3,33.9,30.22,NNE,18,2.1,3.5,37,0.00,FEW,,0.00,WeatherDisplay:10.37,2013-01-22 23:50:00,
2013-01-22 18:55:00,60.1,33.7,30.22,NE,43,3.7,7.0,37,0.00,FEW,,0.00,WeatherDisplay:10.37,2013-01-22 23:55:00,
2013-01-22 19:00:00,60.0,33.6,30.22,NE,37,1.6,3.5,37,0.00,FEW,,0.00,WeatherDisplay:10.37,2013-01-23 00:00:00,
2013-01-22 19:05:00,59.9,33.5,30.23,North,4,3.6,11.5,37,0.00,FEW,,0.00,WeatherDisplay:10.37,2013-01-23 00:05:00,
2013-01-22 19:10:00,59.8,33.5,30.23,NE,50,3.0,8.1,37,0.00,FEW,,0.00,WeatherDisplay:10.37,2013-01-23 00:10:00,
2013-01-22 19:15:00,59.6,33.3,30.23,ENE,65,4.7,8.1,37,0.00,FEW,,0.00,WeatherDisplay:10.37,2013-01-23 00:15:00,
2013-01-22 19:20:00,59.3,33.0,30.23,NNE,21,2.9,4.0,37,0.00,FEW,,0.00,WeatherDisplay:10.37,2013-01-23 00:20:00,
2013-01-22 19:25:00,59.1,32.8,30.24,NE,56,3.6,3.6,37,0.00,FEW,,0.00,WeatherDisplay:10.37,2013-01-23 00:25:00,
2013-01-22 19:30:00,58.8,33.2,30.24,ENE,64,0.1,2.3,38,0.00,FEW,,0.00,WeatherDisplay:10.37,2013-01-23 00:30:00,
2013-01-22 19:35:00,58.5,33.0,30.24,NE,44,2.1,6.9,38,0.00,FEW,,0.00,WeatherDisplay:10.37,2013-01-23 00:35:00,
2013-01-22 19:40:00,58.5,33.0,30.24,NNE,31,1.7,6.9,38,0.00,FEW,,0.00,WeatherDisplay:10.37,2013-01-23 00:40:00,
2013-01-22 19:45:00,58.3,32.8,30.23,NNE,26,3.7,5.8,38,0.00,FEW,,0.00,WeatherDisplay:10.37,2013-01-23 00:45:00,
2013-01-22 19:50:00,58.1,33.2,30.23,NE,37,2.5,4.6,39,0.00,FEW,,0.00,WeatherDisplay:10.37,2013-01-23 00:50:00,
2013-01-22 19:55:00,58.0,33.2,30.23,NNE,30,1.4,2.0,39,0.00,FEW,,0.00,WeatherDisplay:10.37,2013-01-23 00:55:00,
2013-01-22 20:00:00,57.7,33.5,30.24,NNE,26,2.0,5.0,40,0.00,FEW,,0.00,WeatherDisplay:10.37,2013-01-23 01:00:00,
2013-01-22 20:05:00,57.6,33.4,30.24,North,4,2.0,3.5,40,0.00,FEW,,0.00,WeatherDisplay:10.37,2013-01-23 01:05:00,
2013-01-22 20:10:00,57.5,34.0,30.24,NNE,26,1.9,2.3,41,0.00,FEW,,0.00,WeatherDisplay:10.37,2013-01-23 01:10:00,
2013-01-22 20:15:00,57.5,34.0,30.24,NE,40,1.9,4.6,41,0.00,FEW,,0.00,WeatherDisplay:10.37,2013-01-23 01:15:00,
2013-01-22 20:20:00,57.5,34.0,30.24,NE,42,3.3,6.9,41,0.00,FEW,,0.00,WeatherDisplay:10.37,2013-01-23 01:20:00,
2013-01-22 20:25:00,57.5,34.0,30.24,NNE,22,2.0,4.6,41,0.00,FEW,,0.00,WeatherDisplay:10.37,2013-01-23 01:25:00,
2013-01-22 20:30:00,57.3,34.4,30.24,NNE,18,1.1,3.5,42,0.00,FEW,,0.00,WeatherDisplay:10.37,2013-01-23 01:30:00,
2013-01-22 20:35:00,57.2,34.3,30.24,NNE,31,3.6,5.0,42,0.00,FEW,,0.00,WeatherDisplay:10.37,2013-01-23 01:35:00,
2013-01-22 20:40:00,57.3,34.4,30.24,NNE,28,2.3,4.6,42,0.00,FEW,,0.00,WeatherDisplay:10.37,2013-01-23 01:40:00,
2013-01-22 20:45:00,57.2,34.9,30.25,NNE,19,2.0,4.6,43,0.00,FEW,,0.00,WeatherDisplay:10.37,2013-01-23 01:45:00,
2013-01-22 20:50:00,57.1,34.8,30.25,NNE,25,2.4,4.0,43,0.00,FEW,,0.00,WeatherDisplay:10.37,2013-01-23 01:50:00,
2013-01-22 20:55:00,57.0,35.3,30.25,NNE,27,0.9,3.5,44,0.00,FEW,,0.00,WeatherDisplay:10.37,2013-01-23 01:55:00,
2013-01-22 21:00:00,56.8,35.1,30.25,North,358,1.3,3.5,44,0.00,FEW,,0.00,WeatherDisplay:10.37,2013-01-23 02:00:00,
2013-01-22 21:05:00,56.8,35.1,30.25,NNE,18,1.2,4.6,44,0.00,FEW,,0.00,WeatherDisplay:10.37,2013-01-23 02:05:00,
2013-01-22 21:10:00,56.7,35.0,30.25,NNE,14,1.6,2.3,44,0.00,FEW,,0.00,WeatherDisplay:10.37,2013-01-23 02:10:00,
2013-01-22 21:15:00,56.7,35.6,30.26,NNE,33,2.8,4.6,45,0.00,FEW,,0.00,WeatherDisplay:10.37,2013-01-23 02:15:00,
2013-01-22 21:20:00,56.7,35.0,30.26,NE,41,2.3,4.6,44,0.00,FEW,,0.00,WeatherDisplay:10.37,2013-01-23 02:20:00,
2013-01-22 21:25:00,56.6,35.5,30.26,NNE,32,2.5,2.5,45,0.00,FEW,,0.00,WeatherDisplay:10.37,2013-01-23 02:25:00,
2013-01-22 21:30:00,56.6,35.5,30.26,North,359,1.6,3.5,45,0.00,FEW,,0.00,WeatherDisplay:10.37,2013-01-23 02:30:00,
2013-01-22 21:35:00,56.5,36.0,30.26,NNE,31,1.0,3.5,46,0.00,FEW,,0.00,WeatherDisplay:10.37,2013-01-23 02:35:00,
2013-01-22 21:40:00,56.5,36.0,30.26,NE,43,2.9,3.5,46,0.00,FEW,,0.00,WeatherDisplay:10.37,2013-01-23 02:40:00,
2013-01-22 21:45:00,56.4,35.9,30.25,NE,40,2.5,3.5,46,0.00,FEW,,0.00,WeatherDisplay:10.37,2013-01-23 02:45:00,
2013-01-22 21:50:00,56.4,35.9,30.26,NNE,23,2.6,4.6,46,0.00,FEW,,0.00,WeatherDisplay:10.37,2013-01-23 02:50:00,
2013-01-22 21:55:00,56.3,36.3,30.26,NNE,30,2.1,3.5,47,0.00,FEW,,0.00,WeatherDisplay:10.37,2013-01-23 02:55:00,
2013-01-22 22:00:00,56.3,36.3,30.25,NNE,14,2.7,4.6,47,0.00,FEW,,0.00,WeatherDisplay:10.37,2013-01-23 03:00:00,
2013-01-22 22:05:00,56.3,36.3,30.26,NNE,30,2.6,3.5,47,0.00,FEW,,0.00,WeatherDisplay:10.37,2013-01-23 03:05:00,